Hudson, South Dakota
Current Conditions -  °F | °C
As of 1:15 AM on Sunday 26 Oct 2014 (Local Time) from KORC Reporting Station
Clear Clear  
Wind Chill: 50°   Ceiling: Unl
Heat Index: 50°   Visibility: 10mi
Dew Point: 32°   Wind: 6mph
Humidity: 50%   Direction: 90°E
Pressure: 30.02"   Gusts: NA
Location:  43.13°N, 96.45°W
Report Text: KORC 260615Z AUTO 09005KT 10SM CLR 10/00 A3002 RMK AO2
Loading
Personal Weather Stations






























Interactive Weather Map
Tropical Storm Tracking
New forecast layout! Learn more

10-Day Weather Forecast

Advertisements
Track Severe Weather on mobile